createdAt,value
2022-10-06T00:01:28.333Z,79.29
2022-10-06T00:03:55.300Z,79.29
2022-10-06T00:06:22.135Z,79.02
2022-10-06T00:08:51.471Z,77.49
2022-10-06T00:11:20.820Z,77.46
2022-10-06T00:13:52.202Z,77.00
2022-10-06T00:16:24.512Z,77.13
2022-10-06T00:18:53.797Z,76.75
2022-10-06T00:21:20.800Z,78.13
2022-10-06T00:23:47.673Z,78.77
2022-10-06T00:26:17.052Z,78.54
2022-10-06T00:28:48.135Z,78.35
2022-10-06T00:31:16.819Z,78.62
2022-10-06T00:33:44.033Z,78.52
2022-10-06T00:36:11.738Z,77.88
2022-10-06T00:38:38.971Z,76.13
2022-10-06T00:41:12.121Z,76.97
2022-10-06T00:43:50.913Z,75.89
2022-10-06T00:46:24.344Z,75.11
2022-10-06T00:49:01.357Z,74.94
2022-10-06T00:51:30.424Z,74.47
2022-10-06T00:53:59.827Z,75.26
2022-10-06T00:56:26.990Z,75.80
2022-10-06T00:58:56.232Z,75.31
2022-10-06T01:01:26.290Z,75.91
2022-10-06T01:04:05.009Z,75.82
2022-10-06T01:06:47.137Z,76.58
2022-10-06T01:09:17.009Z,75.13
2022-10-06T01:11:48.934Z,76.01
2022-10-06T01:14:17.334Z,75.43
2022-10-06T01:16:49.218Z,75.09
2022-10-06T01:19:47.458Z,74.97
2022-10-06T01:22:18.245Z,75.52
2022-10-06T01:24:47.778Z,74.94
2022-10-06T01:27:16.441Z,74.86
2022-10-06T01:29:43.614Z,74.83
2022-10-06T01:32:10.676Z,74.88
2022-10-06T01:34:37.590Z,75.00
2022-10-06T01:37:06.687Z,75.29
2022-10-06T01:39:33.762Z,74.18
2022-10-06T01:42:00.788Z,74.62
2022-10-06T01:44:30.733Z,74.58
2022-10-06T01:46:57.705Z,74.60
2022-10-06T01:49:24.622Z,74.67
2022-10-06T01:51:51.461Z,74.05
2022-10-06T01:54:21.270Z,74.00
2022-10-06T01:56:48.134Z,73.63
2022-10-06T01:59:15.180Z,73.22
2022-10-06T02:01:44.193Z,73.50
2022-10-06T02:04:13.677Z,74.29
2022-10-06T02:06:40.660Z,74.41
2022-10-06T02:09:10.550Z,74.55
2022-10-06T02:11:39.609Z,74.77
2022-10-06T02:14:06.396Z,75.13
2022-10-06T02:16:33.335Z,75.97
2022-10-06T02:19:00.129Z,75.95
2022-10-06T02:21:27.076Z,75.28
2022-10-06T02:23:54.045Z,75.61
2022-10-06T02:26:21.014Z,76.42
2022-10-06T02:28:49.862Z,77.11
2022-10-06T02:31:19.577Z,76.44
2022-10-06T02:33:46.551Z,77.23
2022-10-06T02:36:15.518Z,78.16
2022-10-06T02:38:42.888Z,77.92
2022-10-06T02:41:11.099Z,76.99
2022-10-06T02:43:38.488Z,77.51
2022-10-06T02:46:13.168Z,77.81
2022-10-06T02:48:41.147Z,78.01
2022-10-06T02:51:19.126Z,78.81
2022-10-06T02:53:51.069Z,79.27
2022-10-06T02:56:24.895Z,79.34
2022-10-06T02:58:53.464Z,79.58
2022-10-06T03:01:25.653Z,79.65
2022-10-06T03:03:53.207Z,79.93
2022-10-06T03:06:23.875Z,80.53
2022-10-06T03:08:56.935Z,80.17
2022-10-06T03:11:30.235Z,80.04
2022-10-06T03:13:57.517Z,80.35
2022-10-06T03:16:32.332Z,78.81
2022-10-06T03:19:00.600Z,79.36
2022-10-06T03:21:33.689Z,79.66
2022-10-06T03:24:03.898Z,78.72
2022-10-06T03:26:34.765Z,78.63
2022-10-06T03:29:01.957Z,79.74
2022-10-06T03:31:29.557Z,79.50
2022-10-06T03:33:59.539Z,80.01
2022-10-06T03:36:31.083Z,80.01
2022-10-06T03:38:57.972Z,79.63
2022-10-06T03:41:28.127Z,79.33
2022-10-06T03:43:59.319Z,79.73
2022-10-06T03:46:32.709Z,79.01
2022-10-06T03:49:02.016Z,79.70
2022-10-06T03:51:35.624Z,79.02
2022-10-06T03:54:05.115Z,78.91
2022-10-06T03:56:38.689Z,79.17
2022-10-06T03:59:10.292Z,78.79
2022-10-06T04:01:44.262Z,78.71
2022-10-06T04:04:12.929Z,79.39
2022-10-06T04:06:43.298Z,79.88
2022-10-06T04:09:15.351Z,78.96
2022-10-06T04:11:45.538Z,78.53
2022-10-06T04:14:15.496Z,79.17
2022-10-06T04:16:46.827Z,78.24
2022-10-06T04:19:17.775Z,77.92
2022-10-06T04:21:46.945Z,77.80
2022-10-06T04:24:19.201Z,78.39
2022-10-06T04:26:52.213Z,77.46
2022-10-06T04:29:19.379Z,77.38
2022-10-06T04:31:47.059Z,76.38
2022-10-06T04:34:18.672Z,75.64
2022-10-06T04:36:46.182Z,75.60
2022-10-06T04:39:13.464Z,75.09
2022-10-06T04:41:42.394Z,76.78
2022-10-06T04:44:12.093Z,77.00
2022-10-06T04:46:43.631Z,76.89
2022-10-06T04:49:19.083Z,77.29
2022-10-06T04:51:48.967Z,78.44
2022-10-06T04:54:16.029Z,78.24
2022-10-06T04:56:45.296Z,78.03
2022-10-06T04:59:14.777Z,77.82
2022-10-06T05:01:41.582Z,78.08
2022-10-06T05:04:10.928Z,77.55
2022-10-06T05:06:41.302Z,78.24
2022-10-06T05:09:16.978Z,77.88
2022-10-06T05:11:46.696Z,78.06
2022-10-06T05:14:15.865Z,77.77
2022-10-06T05:16:45.237Z,77.50
2022-10-06T05:19:12.319Z,76.73
2022-10-06T05:21:39.362Z,77.26
2022-10-06T05:24:09.040Z,77.16
2022-10-06T05:26:36.966Z,77.47
2022-10-06T05:29:04.096Z,77.54
2022-10-06T05:31:33.411Z,77.60
2022-10-06T05:34:02.580Z,77.53
2022-10-06T05:36:32.552Z,77.34
2022-10-06T05:39:00.108Z,77.22
2022-10-06T05:41:29.675Z,76.78
2022-10-06T05:43:58.355Z,77.33
2022-10-06T05:46:28.658Z,78.15
2022-10-06T05:49:01.615Z,76.74
2022-10-06T05:51:33.429Z,76.38
2022-10-06T05:54:01.012Z,74.37
2022-10-06T05:56:30.674Z,73.96
2022-10-06T05:58:59.126Z,73.63
2022-10-06T06:01:31.539Z,72.18
2022-10-06T06:04:02.966Z,71.90
2022-10-06T06:06:44.311Z,70.65
2022-10-06T06:09:17.428Z,69.78
2022-10-06T06:11:47.897Z,70.23
2022-10-06T06:14:40.281Z,70.95
2022-10-06T06:17:07.231Z,71.04
2022-10-06T06:19:34.057Z,69.60
2022-10-06T06:22:00.960Z,68.83
2022-10-06T06:24:27.793Z,66.37
2022-10-06T06:26:54.764Z,63.09
2022-10-06T06:29:24.367Z,61.75
2022-10-06T06:31:51.388Z,60.56
2022-10-06T06:34:20.901Z,58.04
2022-10-06T06:36:55.204Z,57.69
2022-10-06T06:39:22.182Z,58.16
2022-10-06T06:41:53.944Z,56.81
2022-10-06T06:44:21.211Z,54.55
2022-10-06T06:46:49.632Z,54.28
2022-10-06T06:49:20.143Z,55.56
2022-10-06T06:51:51.006Z,52.67
2022-10-06T06:54:20.170Z,51.17
2022-10-06T06:56:50.241Z,51.34
2022-10-06T06:59:18.458Z,50.35
2022-10-06T07:01:49.133Z,50.10
2022-10-06T07:04:17.733Z,49.00
2022-10-06T07:06:58.779Z,47.65
2022-10-06T07:09:26.672Z,45.97
2022-10-06T07:11:54.982Z,45.29
2022-10-06T07:14:24.084Z,45.21
2022-10-06T07:17:09.717Z,44.13
2022-10-06T07:19:39.190Z,43.79
2022-10-06T07:22:27.386Z,42.80
2022-10-06T07:25:11.709Z,43.03
2022-10-06T07:27:50.989Z,42.41
2022-10-06T07:30:23.948Z,41.22
2022-10-06T07:32:51.996Z,40.98
2022-10-06T07:35:23.680Z,40.94
2022-10-06T07:37:53.134Z,41.23
2022-10-06T07:40:22.556Z,39.42
2022-10-06T07:42:51.677Z,39.44
2022-10-06T07:45:41.530Z,37.40
2022-10-06T07:48:18.125Z,38.67
2022-10-06T07:50:48.076Z,38.75
2022-10-06T07:53:17.679Z,37.48
2022-10-06T07:55:47.432Z,35.26
2022-10-06T07:58:16.766Z,39.36
2022-10-06T08:00:45.691Z,38.94
2022-10-06T08:03:17.850Z,38.63
2022-10-06T08:05:56.995Z,36.68
2022-10-06T08:08:24.005Z,35.29
2022-10-06T08:10:56.220Z,33.91
2022-10-06T08:13:26.628Z,34.66
2022-10-06T08:15:56.429Z,34.90
2022-10-06T08:18:45.577Z,35.49
2022-10-06T08:21:18.850Z,38.09
2022-10-06T08:23:47.934Z,38.66
2022-10-06T08:26:16.788Z,39.17
2022-10-06T08:28:46.969Z,40.10
2022-10-06T08:31:21.363Z,39.16
2022-10-06T08:33:49.494Z,36.98
2022-10-06T08:36:21.054Z,34.19
2022-10-06T08:38:49.985Z,31.73
2022-10-06T08:41:46.069Z,30.73
2022-10-06T08:44:16.567Z,29.58
2022-10-06T08:47:00.490Z,28.50
2022-10-06T08:49:36.085Z,29.97
2022-10-06T08:52:54.853Z,30.27
2022-10-06T08:55:42.864Z,30.25
2022-10-06T08:58:31.222Z,31.43
2022-10-06T09:01:18.758Z,31.87
2022-10-06T09:03:52.130Z,32.59
2022-10-06T09:06:45.788Z,34.06
2022-10-06T09:09:44.084Z,31.46
2022-10-06T09:12:40.436Z,29.31
2022-10-06T09:15:38.391Z,29.92
2022-10-06T09:18:19.652Z,29.95
2022-10-06T09:21:02.714Z,30.47
2022-10-06T09:23:47.614Z,27.30
2022-10-06T09:26:23.680Z,28.78
2022-10-06T09:28:51.555Z,31.43
2022-10-06T09:31:18.396Z,30.89
2022-10-06T09:33:48.248Z,29.57
2022-10-06T09:36:15.813Z,26.44
2022-10-06T09:38:55.223Z,26.88
2022-10-06T09:41:39.978Z,25.38
2022-10-06T09:44:27.900Z,25.84
2022-10-06T09:46:55.005Z,26.65
2022-10-06T09:49:24.754Z,26.48
2022-10-06T09:52:15.277Z,28.10
2022-10-06T09:54:44.711Z,27.98
2022-10-06T09:57:24.932Z,28.67
2022-10-06T09:59:59.842Z,27.65
2022-10-06T10:02:40.909Z,27.62
2022-10-06T10:05:24.141Z,24.46
2022-10-06T10:08:24.465Z,22.71
2022-10-06T10:11:30.393Z,24.30
2022-10-06T10:13:58.583Z,24.34
2022-10-06T10:16:34.619Z,26.11
2022-10-06T10:19:04.207Z,25.53
2022-10-06T10:21:37.173Z,24.91
2022-10-06T10:24:17.609Z,25.92
2022-10-06T10:27:31.773Z,25.18
2022-10-06T10:30:16.850Z,25.67
2022-10-06T10:32:51.851Z,25.52
2022-10-06T10:35:37.300Z,25.09
2022-10-06T10:38:21.340Z,24.98
2022-10-06T10:40:51.658Z,23.87
2022-10-06T10:43:29.513Z,23.30
2022-10-06T10:46:12.592Z,21.36
2022-10-06T10:48:56.710Z,20.94
2022-10-06T10:51:38.250Z,23.10
2022-10-06T10:54:28.455Z,24.59
2022-10-06T10:56:58.602Z,27.46
2022-10-06T10:59:49.664Z,29.82
2022-10-06T11:02:22.156Z,31.81
2022-10-06T11:05:03.930Z,32.73
2022-10-06T11:07:45.560Z,33.71
2022-10-06T11:10:35.079Z,34.09
2022-10-06T11:13:26.010Z,30.23
2022-10-06T11:16:04.709Z,25.58
2022-10-06T11:18:42.837Z,23.88
2022-10-06T11:21:14.470Z,22.28
2022-10-06T11:24:31.810Z,22.39
2022-10-06T11:27:36.022Z,24.77
2022-10-06T11:30:19.099Z,26.88
2022-10-06T11:33:18.889Z,28.37
2022-10-06T11:35:48.734Z,26.34
2022-10-06T11:38:38.118Z,24.89
2022-10-06T11:41:27.528Z,25.23
2022-10-06T11:44:39.193Z,24.81
2022-10-06T11:47:11.989Z,22.50
2022-10-06T11:49:55.975Z,21.25
2022-10-06T11:52:25.444Z,19.67
2022-10-06T11:55:07.743Z,20.01
2022-10-06T11:58:23.427Z,18.26
2022-10-06T12:00:52.686Z,20.13
2022-10-06T12:03:29.070Z,19.81
2022-10-06T12:05:58.632Z,20.39
2022-10-06T12:08:40.747Z,19.58
2022-10-06T12:11:43.778Z,20.07
2022-10-06T12:18:05.217Z,21.42
2022-10-06T12:21:06.309Z,22.59
2022-10-06T12:24:02.111Z,22.86
2022-10-06T12:26:43.868Z,21.85
2022-10-06T12:29:35.328Z,22.44
2022-10-06T12:32:23.289Z,21.17
2022-10-06T12:35:34.078Z,22.44
2022-10-06T12:38:24.118Z,22.50
2022-10-06T12:40:57.681Z,22.11
2022-10-06T12:43:28.702Z,21.69
2022-10-06T12:46:16.128Z,24.62
2022-10-06T12:48:55.454Z,23.18
2022-10-06T12:51:51.371Z,22.44
2022-10-06T12:54:30.376Z,23.20
2022-10-06T12:57:30.619Z,22.92
2022-10-06T12:59:57.994Z,23.32
2022-10-06T13:02:27.859Z,23.23
2022-10-06T13:05:03.144Z,23.94
2022-10-06T13:07:33.715Z,23.42
2022-10-06T13:10:15.657Z,23.60
2022-10-06T13:12:47.527Z,23.61
2022-10-06T13:18:04.298Z,29.48
2022-10-06T13:20:53.718Z,30.31
2022-10-06T13:23:30.190Z,31.54
2022-10-06T13:26:06.692Z,29.46
2022-10-06T13:28:35.542Z,27.37
2022-10-06T13:31:14.757Z,26.98
2022-10-06T13:33:44.869Z,27.57
2022-10-06T13:36:22.396Z,26.76
2022-10-06T13:38:53.229Z,28.00
2022-10-06T13:41:32.851Z,27.12
2022-10-06T13:44:14.173Z,27.68
2022-10-06T13:46:52.062Z,27.06
2022-10-06T13:49:33.421Z,26.88
2022-10-06T13:52:10.092Z,26.94
2022-10-06T13:55:00.821Z,25.26
2022-10-06T13:57:45.245Z,25.75
2022-10-06T14:00:21.731Z,24.62
2022-10-06T14:02:54.257Z,24.68
2022-10-06T14:05:26.842Z,24.43
2022-10-06T14:08:24.204Z,26.22
2022-10-06T14:10:56.072Z,25.75
2022-10-06T14:13:31.901Z,26.18
2022-10-06T14:16:10.431Z,26.87
2022-10-06T14:18:47.026Z,27.49
2022-10-06T14:21:31.938Z,26.76
2022-10-06T14:24:01.294Z,25.88
2022-10-06T14:26:34.675Z,25.40
2022-10-06T14:29:01.647Z,25.67
2022-10-06T14:31:29.100Z,25.63
2022-10-06T14:33:57.162Z,26.35
2022-10-06T14:36:36.690Z,26.96
2022-10-06T14:39:09.100Z,27.69
2022-10-06T14:41:35.887Z,27.10
2022-10-06T14:44:12.357Z,29.25
2022-10-06T14:46:47.648Z,28.89
2022-10-06T14:49:17.755Z,27.50
2022-10-06T14:51:45.654Z,27.67
2022-10-06T14:54:15.136Z,28.86
2022-10-06T14:56:42.618Z,27.50
2022-10-06T14:59:14.566Z,28.52
2022-10-06T15:01:43.599Z,28.10
2022-10-06T15:04:19.583Z,28.86
2022-10-06T15:07:08.297Z,29.86
2022-10-06T15:09:35.836Z,30.16
2022-10-06T15:12:05.752Z,30.52
2022-10-06T15:14:39.540Z,29.55
2022-10-06T15:17:09.081Z,31.42
2022-10-06T15:19:40.269Z,31.53
2022-10-06T15:22:08.913Z,30.22
2022-10-06T15:24:35.806Z,30.14
2022-10-06T15:27:24.724Z,32.71
2022-10-06T15:29:52.073Z,34.23
2022-10-06T15:32:18.900Z,36.08
2022-10-06T15:34:45.739Z,37.01
2022-10-06T15:37:12.578Z,37.77
2022-10-06T15:39:39.449Z,37.81
2022-10-06T15:42:08.025Z,38.33
2022-10-06T15:44:39.752Z,39.01
2022-10-06T15:47:09.312Z,39.91
2022-10-06T15:49:40.637Z,40.06
2022-10-06T15:52:13.778Z,40.98
2022-10-06T15:54:48.642Z,40.91
2022-10-06T15:57:20.704Z,41.17
2022-10-06T15:59:51.075Z,41.51
2022-10-06T16:02:21.406Z,42.18
2022-10-06T16:05:15.445Z,42.39
2022-10-06T16:07:42.293Z,42.03
2022-10-06T16:10:09.325Z,42.90
2022-10-06T16:12:40.876Z,43.10
2022-10-06T16:15:08.129Z,43.06
2022-10-06T16:17:37.224Z,43.16
2022-10-06T16:20:06.676Z,44.75
2022-10-06T16:22:36.161Z,44.60
2022-10-06T16:25:06.865Z,44.82
2022-10-06T16:27:35.227Z,44.80
2022-10-06T16:30:02.063Z,45.17
2022-10-06T16:32:28.979Z,45.28
2022-10-06T16:34:55.803Z,45.44
2022-10-06T16:37:22.600Z,45.30
2022-10-06T16:39:49.464Z,47.01
2022-10-06T16:42:16.741Z,47.19
2022-10-06T16:44:43.621Z,47.69
2022-10-06T16:47:13.638Z,48.09
2022-10-06T16:49:40.515Z,48.03
2022-10-06T16:52:07.339Z,48.21
2022-10-06T16:54:36.374Z,47.83
2022-10-06T16:57:06.640Z,48.57
2022-10-06T16:59:33.530Z,48.81
2022-10-06T17:02:00.357Z,49.17
2022-10-06T17:04:27.449Z,49.76
2022-10-06T17:06:56.722Z,50.33
2022-10-06T17:09:27.456Z,50.04
2022-10-06T17:12:02.606Z,50.42
2022-10-06T17:14:34.701Z,51.24
2022-10-06T17:17:05.646Z,50.82
2022-10-06T17:19:32.477Z,51.22
2022-10-06T17:22:00.110Z,51.37
2022-10-06T17:24:31.222Z,52.05
2022-10-06T17:26:59.041Z,53.06
2022-10-06T17:29:27.178Z,53.33
2022-10-06T17:31:59.475Z,53.68
2022-10-06T17:34:31.671Z,54.31
2022-10-06T17:36:59.285Z,54.56
2022-10-06T17:39:26.097Z,54.74
2022-10-06T17:41:56.771Z,54.55
2022-10-06T17:44:27.476Z,55.19
2022-10-06T17:47:00.151Z,55.55
2022-10-06T17:49:27.998Z,55.93
2022-10-06T17:51:59.924Z,56.23
2022-10-06T17:54:28.424Z,56.58
2022-10-06T17:57:01.040Z,57.14
2022-10-06T17:59:31.193Z,57.43
2022-10-06T18:02:01.152Z,57.05
2022-10-06T18:04:29.047Z,57.05
2022-10-06T18:06:56.982Z,57.09
2022-10-06T18:09:24.029Z,58.19
2022-10-06T18:11:56.113Z,57.80
2022-10-06T18:14:26.853Z,57.95
2022-10-06T18:17:04.032Z,57.64
2022-10-06T18:19:35.573Z,58.91
2022-10-06T18:22:10.472Z,59.82
2022-10-06T18:24:41.463Z,59.66
2022-10-06T18:27:08.878Z,59.94
2022-10-06T18:29:38.332Z,59.95
2022-10-06T18:37:44.638Z,60.45
2022-10-06T18:40:12.365Z,61.11
2022-10-06T18:42:39.571Z,60.59
2022-10-06T18:45:27.134Z,61.31
2022-10-06T18:48:12.248Z,60.89
2022-10-06T18:50:39.594Z,60.46
2022-10-06T18:53:06.626Z,60.45
2022-10-06T18:55:36.621Z,61.43
2022-10-06T18:58:06.483Z,61.25
2022-10-06T19:00:34.112Z,61.00
2022-10-06T19:03:01.317Z,60.99
2022-10-06T19:05:29.582Z,61.22
2022-10-06T19:07:56.715Z,60.84
2022-10-06T19:10:23.711Z,61.61
2022-10-06T19:12:50.682Z,62.16
2022-10-06T19:15:22.410Z,61.79
2022-10-06T19:17:52.036Z,62.99
2022-10-06T19:20:19.883Z,63.44
2022-10-06T19:22:47.550Z,63.48
2022-10-06T19:25:18.816Z,63.04
2022-10-06T19:27:45.898Z,62.84
2022-10-06T19:30:13.573Z,63.27
2022-10-06T19:32:43.118Z,64.13
2022-10-06T19:35:13.421Z,64.26
2022-10-06T19:37:43.522Z,65.41
2022-10-06T19:40:11.503Z,65.44
2022-10-06T19:42:47.897Z,64.82
2022-10-06T19:45:16.446Z,65.20
2022-10-06T19:47:44.863Z,65.81
2022-10-06T19:50:12.984Z,65.88
2022-10-06T19:52:41.315Z,65.86
2022-10-06T19:55:10.775Z,66.44
2022-10-06T19:57:37.619Z,66.45
2022-10-06T20:00:06.713Z,67.30
2022-10-06T20:02:34.918Z,66.53
2022-10-06T20:05:05.851Z,66.37
2022-10-06T20:07:35.523Z,66.37
2022-10-06T20:10:03.175Z,66.99
2022-10-06T20:12:30.057Z,67.19
2022-10-06T20:14:59.085Z,68.13
2022-10-06T20:17:28.892Z,67.98
2022-10-06T20:20:01.865Z,67.25
2022-10-06T20:22:34.474Z,68.00
2022-10-06T20:25:05.225Z,68.15
2022-10-06T20:27:39.747Z,67.94
2022-10-06T20:30:08.147Z,68.54
2022-10-06T20:32:40.161Z,67.98
2022-10-06T20:35:08.048Z,68.76
2022-10-06T20:37:41.732Z,67.93
2022-10-06T20:40:28.345Z,68.10
2022-10-06T20:42:55.213Z,68.26
2022-10-06T20:45:23.469Z,68.09
2022-10-06T20:47:52.589Z,68.72
2022-10-06T20:50:19.904Z,67.53
2022-10-06T20:52:49.321Z,67.84
2022-10-06T20:55:18.617Z,69.25
2022-10-06T20:57:45.771Z,69.16
2022-10-06T21:00:15.470Z,69.08
2022-10-06T21:02:46.807Z,69.32
2022-10-06T21:05:13.934Z,70.27
2022-10-06T21:07:43.814Z,69.98
2022-10-06T21:10:11.326Z,70.19
2022-10-06T21:12:43.167Z,69.97
2022-10-06T21:15:10.518Z,69.50
2022-10-06T21:17:41.513Z,70.01
2022-10-06T21:20:11.691Z,69.60
2022-10-06T21:22:43.228Z,70.14
2022-10-06T21:25:13.023Z,70.46
2022-10-06T21:27:40.302Z,70.50
2022-10-06T21:30:10.244Z,69.51
2022-10-06T21:32:38.201Z,70.34
2022-10-06T21:35:08.287Z,69.85
2022-10-06T21:37:35.230Z,70.26
2022-10-06T21:40:02.676Z,70.76
2022-10-06T21:42:29.724Z,71.23
2022-10-06T21:44:59.055Z,71.01
2022-10-06T21:47:26.016Z,70.84
2022-10-06T21:49:55.169Z,71.50
2022-10-06T21:52:22.090Z,70.78
2022-10-06T21:54:51.975Z,70.76
2022-10-06T21:57:20.997Z,70.25
2022-10-06T21:59:47.922Z,70.78
2022-10-06T22:02:14.823Z,71.11
2022-10-06T22:04:41.955Z,72.08
2022-10-06T22:07:11.336Z,72.11
2022-10-06T22:09:38.219Z,73.19
2022-10-06T22:12:07.163Z,71.89
2022-10-06T22:14:34.136Z,72.29
2022-10-06T22:17:01.036Z,74.04
2022-10-06T22:19:31.007Z,73.70
2022-10-06T22:21:57.880Z,75.24
2022-10-06T22:24:24.761Z,76.07
2022-10-06T22:26:51.709Z,74.80
2022-10-06T22:29:22.315Z,75.81
2022-10-06T22:31:49.481Z,74.96
2022-10-06T22:34:19.550Z,74.69
2022-10-06T22:36:49.168Z,74.58
2022-10-06T22:39:16.578Z,75.86
2022-10-06T22:41:44.037Z,75.28
2022-10-06T22:44:10.898Z,75.91
2022-10-06T22:46:38.517Z,77.12
2022-10-06T22:49:06.796Z,76.55
2022-10-06T22:51:34.172Z,77.40
2022-10-06T22:54:01.458Z,77.30
2022-10-06T22:56:32.690Z,77.23
2022-10-06T22:59:00.403Z,77.33
2022-10-06T23:01:31.212Z,78.43
2022-10-06T23:03:58.572Z,78.87
2022-10-06T23:06:31.291Z,78.32
2022-10-06T23:08:58.715Z,78.41
2022-10-06T23:11:26.060Z,78.94
2022-10-06T23:13:53.266Z,79.50
2022-10-06T23:16:23.894Z,80.22
2022-10-06T23:18:51.151Z,80.92
2022-10-06T23:21:27.330Z,80.18
2022-10-06T23:24:00.230Z,79.26
2022-10-06T23:26:27.741Z,80.50
2022-10-06T23:28:57.653Z,79.97
2022-10-06T23:31:25.724Z,80.52
2022-10-06T23:33:53.794Z,79.69
2022-10-06T23:36:22.857Z,80.40
2022-10-06T23:38:49.914Z,79.79
2022-10-06T23:41:16.929Z,80.45
2022-10-06T23:43:49.020Z,81.46
2022-10-06T23:46:16.118Z,81.24
2022-10-06T23:48:43.232Z,80.79
2022-10-06T23:51:16.213Z,80.26
2022-10-06T23:53:46.155Z,80.44
2022-10-06T23:56:13.266Z,80.23
2022-10-06T23:58:41.820Z,80.13
